sensor_id;sensor_type;location;lat;lon;timestamp;P1;durP1;ratioP1;P2;durP2;ratioP2
3465;SDS011;1747;48.884;9.160;2022-11-15T00:30:51;5.10;;;3.17;;
3465;SDS011;1747;48.884;9.160;2022-11-15T00:33:18;5.88;;;3.50;;
3465;SDS011;1747;48.884;9.160;2022-11-15T00:35:44;5.47;;;3.13;;
3465;SDS011;1747;48.884;9.160;2022-11-15T00:38:11;5.25;;;3.00;;
3465;SDS011;1747;48.884;9.160;2022-11-15T00:40:38;5.65;;;2.95;;
3465;SDS011;1747;48.884;9.160;2022-11-15T00:43:05;5.85;;;2.97;;
3465;SDS011;1747;48.884;9.160;2022-11-15T00:45:31;3.90;;;2.65;;
3465;SDS011;1747;48.884;9.160;2022-11-15T00:48:00;5.80;;;2.80;;
3465;SDS011;1747;48.884;9.160;2022-11-15T00:50:26;5.18;;;2.92;;
3465;SDS011;1747;48.884;9.160;2022-11-15T00:52:53;5.25;;;2.90;;
3465;SDS011;1747;48.884;9.160;2022-11-15T00:55:20;4.72;;;3.10;;
3465;SDS011;1747;48.884;9.160;2022-11-15T00:57:47;6.60;;;2.70;;
3465;SDS011;1747;48.884;9.160;2022-11-15T01:00:14;4.28;;;3.17;;
3465;SDS011;1747;48.884;9.160;2022-11-15T01:02:41;6.28;;;2.92;;
3465;SDS011;1747;48.884;9.160;2022-11-15T01:05:09;4.72;;;2.70;;
3465;SDS011;1747;48.884;9.160;2022-11-15T01:07:36;4.07;;;2.78;;
3465;SDS011;1747;48.884;9.160;2022-11-15T01:10:03;3.08;;;2.40;;
3465;SDS011;1747;48.884;9.160;2022-11-15T01:12:30;6.50;;;2.90;;
3465;SDS011;1747;48.884;9.160;2022-11-15T01:14:57;5.05;;;2.63;;
3465;SDS011;1747;48.884;9.160;2022-11-15T01:17:24;4.55;;;2.65;;
3465;SDS011;1747;48.884;9.160;2022-11-15T01:19:51;6.28;;;2.75;;
3465;SDS011;1747;48.884;9.160;2022-11-15T01:22:19;4.45;;;2.53;;
3465;SDS011;1747;48.884;9.160;2022-11-15T01:24:46;4.63;;;2.00;;
3465;SDS011;1747;48.884;9.160;2022-11-15T01:27:13;4.28;;;2.30;;
3465;SDS011;1747;48.884;9.160;2022-11-15T01:29:40;2.80;;;2.20;;
3465;SDS011;1747;48.884;9.160;2022-11-15T01:32:06;5.50;;;2.42;;
3465;SDS011;1747;48.884;9.160;2022-11-15T01:34:34;6.88;;;2.53;;
3465;SDS011;1747;48.884;9.160;2022-11-15T01:37:00;3.72;;;1.90;;
3465;SDS011;1747;48.884;9.160;2022-11-15T01:39:29;3.83;;;2.25;;
3465;SDS011;1747;48.884;9.160;2022-11-15T01:41:56;4.88;;;2.63;;
3465;SDS011;1747;48.884;9.160;2022-11-15T01:44:31;3.20;;;2.28;;
3465;SDS011;1747;48.884;9.160;2022-11-15T01:47:06;4.88;;;2.47;;
3465;SDS011;1747;48.884;9.160;2022-11-15T01:49:38;3.70;;;2.40;;
3465;SDS011;1747;48.884;9.160;2022-11-15T01:52:07;4.32;;;2.63;;
3465;SDS011;1747;48.884;9.160;2022-11-15T01:54:37;3.63;;;2.13;;
3465;SDS011;1747;48.884;9.160;2022-11-15T01:57:06;3.50;;;2.35;;
3465;SDS011;1747;48.884;9.160;2022-11-15T01:59:35;5.03;;;2.20;;
3465;SDS011;1747;48.884;9.160;2022-11-15T02:02:03;4.30;;;2.00;;
3465;SDS011;1747;48.884;9.160;2022-11-15T02:04:31;5.82;;;2.03;;
3465;SDS011;1747;48.884;9.160;2022-11-15T02:07:00;3.20;;;2.00;;
3465;SDS011;1747;48.884;9.160;2022-11-15T02:09:29;4.07;;;2.38;;
3465;SDS011;1747;48.884;9.160;2022-11-15T02:11:57;5.05;;;3.17;;
3465;SDS011;1747;48.884;9.160;2022-11-15T02:14:25;3.90;;;2.22;;
3465;SDS011;1747;48.884;9.160;2022-11-15T02:16:57;5.15;;;2.30;;
3465;SDS011;1747;48.884;9.160;2022-11-15T02:19:31;4.22;;;2.60;;
3465;SDS011;1747;48.884;9.160;2022-11-15T02:22:19;3.03;;;2.30;;
3465;SDS011;1747;48.884;9.160;2022-11-15T02:25:03;3.67;;;2.42;;
3465;SDS011;1747;48.884;9.160;2022-11-15T02:28:02;5.00;;;2.35;;
3465;SDS011;1747;48.884;9.160;2022-11-15T02:30:43;6.35;;;2.72;;
3465;SDS011;1747;48.884;9.160;2022-11-15T02:33:17;4.55;;;2.40;;
3465;SDS011;1747;48.884;9.160;2022-11-15T02:35:56;4.28;;;2.47;;
3465;SDS011;1747;48.884;9.160;2022-11-15T02:38:27;4.10;;;2.67;;
3465;SDS011;1747;48.884;9.160;2022-11-15T02:40:59;4.38;;;2.22;;
3465;SDS011;1747;48.884;9.160;2022-11-15T02:43:38;4.45;;;2.70;;
3465;SDS011;1747;48.884;9.160;2022-11-15T02:46:25;5.53;;;2.50;;
3465;SDS011;1747;48.884;9.160;2022-11-15T02:49:10;3.10;;;2.25;;
3465;SDS011;1747;48.884;9.160;2022-11-15T02:51:39;3.50;;;2.40;;
3465;SDS011;1747;48.884;9.160;2022-11-15T02:54:06;3.08;;;2.28;;
3465;SDS011;1747;48.884;9.160;2022-11-15T02:56:36;3.80;;;2.38;;
3465;SDS011;1747;48.884;9.160;2022-11-15T02:59:10;4.95;;;2.83;;
3465;SDS011;1747;48.884;9.160;2022-11-15T03:01:54;5.05;;;2.80;;
3465;SDS011;1747;48.884;9.160;2022-11-15T03:04:29;4.38;;;2.35;;
3465;SDS011;1747;48.884;9.160;2022-11-15T03:07:05;4.97;;;2.15;;
3465;SDS011;1747;48.884;9.160;2022-11-15T03:09:39;2.75;;;2.13;;
3465;SDS011;1747;48.884;9.160;2022-11-15T03:12:13;4.15;;;2.22;;
3465;SDS011;1747;48.884;9.160;2022-11-15T03:14:44;3.80;;;2.35;;
3465;SDS011;1747;48.884;9.160;2022-11-15T03:17:21;4.63;;;2.05;;
3465;SDS011;1747;48.884;9.160;2022-11-15T03:19:53;2.58;;;2.00;;
3465;SDS011;1747;48.884;9.160;2022-11-15T03:22:23;3.20;;;2.05;;
3465;SDS011;1747;48.884;9.160;2022-11-15T03:24:53;3.97;;;2.33;;
3465;SDS011;1747;48.884;9.160;2022-11-15T03:27:24;4.60;;;1.95;;
3465;SDS011;1747;48.884;9.160;2022-11-15T03:29:56;5.55;;;2.58;;
3465;SDS011;1747;48.884;9.160;2022-11-15T03:32:28;3.83;;;2.33;;
3465;SDS011;1747;48.884;9.160;2022-11-15T03:34:57;4.13;;;2.53;;
3465;SDS011;1747;48.884;9.160;2022-11-15T03:37:27;4.40;;;2.63;;
3465;SDS011;1747;48.884;9.160;2022-11-15T03:39:58;4.53;;;2.45;;
3465;SDS011;1747;48.884;9.160;2022-11-15T03:42:28;5.28;;;2.30;;
3465;SDS011;1747;48.884;9.160;2022-11-15T03:45:00;4.68;;;2.17;;
3465;SDS011;1747;48.884;9.160;2022-11-15T03:47:34;3.92;;;2.40;;
3465;SDS011;1747;48.884;9.160;2022-11-15T03:50:07;6.32;;;2.67;;
3465;SDS011;1747;48.884;9.160;2022-11-15T03:52:36;4.20;;;2.72;;
3465;SDS011;1747;48.884;9.160;2022-11-15T03:55:06;4.50;;;2.97;;
3465;SDS011;1747;48.884;9.160;2022-11-15T03:57:36;4.40;;;2.92;;
3465;SDS011;1747;48.884;9.160;2022-11-15T04:00:03;7.88;;;3.33;;
3465;SDS011;1747;48.884;9.160;2022-11-15T04:02:31;6.95;;;4.03;;
3465;SDS011;1747;48.884;9.160;2022-11-15T04:04:59;7.22;;;3.78;;
3465;SDS011;1747;48.884;9.160;2022-11-15T04:07:26;7.57;;;3.88;;
3465;SDS011;1747;48.884;9.160;2022-11-15T04:09:52;8.60;;;4.22;;
3465;SDS011;1747;48.884;9.160;2022-11-15T04:12:28;9.07;;;4.47;;
3465;SDS011;1747;48.884;9.160;2022-11-15T04:14:58;9.02;;;4.25;;
3465;SDS011;1747;48.884;9.160;2022-11-15T04:17:36;6.47;;;3.75;;
3465;SDS011;1747;48.884;9.160;2022-11-15T04:20:07;7.88;;;4.05;;
3465;SDS011;1747;48.884;9.160;2022-11-15T04:22:53;8.10;;;4.10;;
3465;SDS011;1747;48.884;9.160;2022-11-15T04:25:38;5.47;;;3.63;;
3465;SDS011;1747;48.884;9.160;2022-11-15T04:28:05;8.65;;;3.97;;
3465;SDS011;1747;48.884;9.160;2022-11-15T04:30:32;6.97;;;3.65;;
3465;SDS011;1747;48.884;9.160;2022-11-15T04:32:59;9.73;;;3.80;;
3465;SDS011;1747;48.884;9.160;2022-11-15T04:35:27;5.78;;;3.50;;
3465;SDS011;1747;48.884;9.160;2022-11-15T04:37:54;6.60;;;3.90;;
3465;SDS011;1747;48.884;9.160;2022-11-15T04:40:20;5.35;;;3.20;;
3465;SDS011;1747;48.884;9.160;2022-11-15T04:42:47;6.13;;;3.50;;
3465;SDS011;1747;48.884;9.160;2022-11-15T04:45:14;5.88;;;3.22;;
3465;SDS011;1747;48.884;9.160;2022-11-15T04:47:42;4.88;;;3.30;;
3465;SDS011;1747;48.884;9.160;2022-11-15T04:50:11;5.22;;;3.20;;
3465;SDS011;1747;48.884;9.160;2022-11-15T04:52:42;5.95;;;3.63;;
3465;SDS011;1747;48.884;9.160;2022-11-15T04:55:10;8.23;;;3.15;;
3465;SDS011;1747;48.884;9.160;2022-11-15T04:57:37;6.40;;;3.47;;
3465;SDS011;1747;48.884;9.160;2022-11-15T05:00:05;4.53;;;3.15;;
3465;SDS011;1747;48.884;9.160;2022-11-15T05:02:34;4.55;;;2.90;;
3465;SDS011;1747;48.884;9.160;2022-11-15T05:05:18;5.55;;;3.13;;
3465;SDS011;1747;48.884;9.160;2022-11-15T05:07:47;7.28;;;3.42;;
3465;SDS011;1747;48.884;9.160;2022-11-15T05:10:14;6.00;;;3.08;;
3465;SDS011;1747;48.884;9.160;2022-11-15T05:12:41;4.93;;;3.10;;
3465;SDS011;1747;48.884;9.160;2022-11-15T05:15:08;5.22;;;3.33;;
3465;SDS011;1747;48.884;9.160;2022-11-15T05:17:35;6.35;;;3.50;;
3465;SDS011;1747;48.884;9.160;2022-11-15T05:20:02;4.28;;;2.70;;
3465;SDS011;1747;48.884;9.160;2022-11-15T05:22:29;7.10;;;3.38;;
3465;SDS011;1747;48.884;9.160;2022-11-15T05:24:57;6.47;;;3.08;;
3465;SDS011;1747;48.884;9.160;2022-11-15T05:27:24;5.30;;;3.30;;
3465;SDS011;1747;48.884;9.160;2022-11-15T05:29:51;7.47;;;3.53;;
3465;SDS011;1747;48.884;9.160;2022-11-15T05:32:18;5.22;;;2.80;;
3465;SDS011;1747;48.884;9.160;2022-11-15T05:34:44;4.72;;;2.83;;
3465;SDS011;1747;48.884;9.160;2022-11-15T05:37:12;6.30;;;2.95;;
3465;SDS011;1747;48.884;9.160;2022-11-15T05:39:39;4.78;;;3.05;;
3465;SDS011;1747;48.884;9.160;2022-11-15T05:42:07;7.90;;;3.70;;
3465;SDS011;1747;48.884;9.160;2022-11-15T05:44:37;6.90;;;3.30;;
3465;SDS011;1747;48.884;9.160;2022-11-15T05:47:07;5.25;;;2.92;;
3465;SDS011;1747;48.884;9.160;2022-11-15T05:49:38;4.20;;;3.25;;
3465;SDS011;1747;48.884;9.160;2022-11-15T05:52:08;8.93;;;3.25;;
3465;SDS011;1747;48.884;9.160;2022-11-15T05:54:39;4.82;;;2.95;;
3465;SDS011;1747;48.884;9.160;2022-11-15T05:57:07;6.93;;;3.10;;
3465;SDS011;1747;48.884;9.160;2022-11-15T05:59:34;3.50;;;2.88;;
3465;SDS011;1747;48.884;9.160;2022-11-15T06:02:02;5.78;;;3.80;;
3465;SDS011;1747;48.884;9.160;2022-11-15T06:04:29;5.25;;;3.45;;
3465;SDS011;1747;48.884;9.160;2022-11-15T06:06:55;8.45;;;3.47;;
3465;SDS011;1747;48.884;9.160;2022-11-15T06:09:24;4.38;;;2.83;;
3465;SDS011;1747;48.884;9.160;2022-11-15T06:11:51;7.55;;;3.85;;
3465;SDS011;1747;48.884;9.160;2022-11-15T06:14:19;5.20;;;3.25;;
3465;SDS011;1747;48.884;9.160;2022-11-15T06:16:46;6.68;;;3.45;;
3465;SDS011;1747;48.884;9.160;2022-11-15T06:19:13;6.60;;;3.90;;
3465;SDS011;1747;48.884;9.160;2022-11-15T06:21:40;6.45;;;3.58;;
3465;SDS011;1747;48.884;9.160;2022-11-15T06:24:07;6.53;;;3.85;;
3465;SDS011;1747;48.884;9.160;2022-11-15T06:26:34;7.20;;;3.90;;
3465;SDS011;1747;48.884;9.160;2022-11-15T06:29:01;7.03;;;4.00;;
3465;SDS011;1747;48.884;9.160;2022-11-15T06:31:30;6.00;;;3.83;;
3465;SDS011;1747;48.884;9.160;2022-11-15T06:33:57;6.97;;;4.07;;
3465;SDS011;1747;48.884;9.160;2022-11-15T06:36:24;6.50;;;3.90;;
3465;SDS011;1747;48.884;9.160;2022-11-15T06:38:50;7.47;;;3.75;;
3465;SDS011;1747;48.884;9.160;2022-11-15T06:41:17;7.00;;;3.75;;
3465;SDS011;1747;48.884;9.160;2022-11-15T06:43:46;7.70;;;3.63;;
3465;SDS011;1747;48.884;9.160;2022-11-15T06:46:12;7.35;;;3.78;;
3465;SDS011;1747;48.884;9.160;2022-11-15T06:48:40;8.60;;;3.75;;
3465;SDS011;1747;48.884;9.160;2022-11-15T06:51:07;9.23;;;3.83;;
3465;SDS011;1747;48.884;9.160;2022-11-15T06:53:34;5.80;;;3.58;;
3465;SDS011;1747;48.884;9.160;2022-11-15T06:56:01;7.07;;;4.35;;
3465;SDS011;1747;48.884;9.160;2022-11-15T06:58:29;6.28;;;3.88;;
3465;SDS011;1747;48.884;9.160;2022-11-15T07:01:00;7.97;;;4.27;;
3465;SDS011;1747;48.884;9.160;2022-11-15T07:03:28;6.68;;;3.92;;
3465;SDS011;1747;48.884;9.160;2022-11-15T07:05:56;6.65;;;4.25;;
3465;SDS011;1747;48.884;9.160;2022-11-15T07:08:24;7.45;;;3.60;;
3465;SDS011;1747;48.884;9.160;2022-11-15T07:10:53;7.65;;;3.88;;
3465;SDS011;1747;48.884;9.160;2022-11-15T07:13:23;7.35;;;3.58;;
3465;SDS011;1747;48.884;9.160;2022-11-15T07:15:50;5.53;;;3.38;;
3465;SDS011;1747;48.884;9.160;2022-11-15T07:18:17;7.13;;;3.40;;
3465;SDS011;1747;48.884;9.160;2022-11-15T07:20:44;5.13;;;3.00;;
3465;SDS011;1747;48.884;9.160;2022-11-15T07:23:12;6.10;;;3.28;;
3465;SDS011;1747;48.884;9.160;2022-11-15T07:25:39;7.90;;;3.22;;
3465;SDS011;1747;48.884;9.160;2022-11-15T07:28:06;6.07;;;3.20;;
3465;SDS011;1747;48.884;9.160;2022-11-15T07:30:33;10.52;;;3.13;;
3465;SDS011;1747;48.884;9.160;2022-11-15T07:32:59;5.55;;;2.88;;
3465;SDS011;1747;48.884;9.160;2022-11-15T07:35:27;9.63;;;3.08;;
3465;SDS011;1747;48.884;9.160;2022-11-15T07:37:55;9.57;;;3.10;;
3465;SDS011;1747;48.884;9.160;2022-11-15T07:40:24;9.05;;;3.40;;
3465;SDS011;1747;48.884;9.160;2022-11-15T07:42:51;7.38;;;3.15;;
3465;SDS011;1747;48.884;9.160;2022-11-15T07:45:22;7.07;;;2.60;;
3465;SDS011;1747;48.884;9.160;2022-11-15T07:47:50;3.92;;;2.70;;
3465;SDS011;1747;48.884;9.160;2022-11-15T07:50:18;13.32;;;3.30;;
3465;SDS011;1747;48.884;9.160;2022-11-15T07:52:45;5.47;;;2.88;;
3465;SDS011;1747;48.884;9.160;2022-11-15T07:55:12;6.78;;;2.67;;
3465;SDS011;1747;48.884;9.160;2022-11-15T07:57:40;5.82;;;2.55;;
3465;SDS011;1747;48.884;9.160;2022-11-15T08:00:08;5.07;;;2.78;;
3465;SDS011;1747;48.884;9.160;2022-11-15T08:02:35;4.97;;;2.50;;
3465;SDS011;1747;48.884;9.160;2022-11-15T08:05:02;4.68;;;2.83;;
3465;SDS011;1747;48.884;9.160;2022-11-15T08:07:29;7.05;;;2.60;;
3465;SDS011;1747;48.884;9.160;2022-11-15T08:09:56;5.28;;;2.75;;
3465;SDS011;1747;48.884;9.160;2022-11-15T08:12:23;6.55;;;3.05;;
3465;SDS011;1747;48.884;9.160;2022-11-15T08:14:52;10.70;;;3.67;;
3465;SDS011;1747;48.884;9.160;2022-11-15T08:17:18;8.57;;;4.18;;
3465;SDS011;1747;48.884;9.160;2022-11-15T08:19:45;10.50;;;3.60;;
3465;SDS011;1747;48.884;9.160;2022-11-15T08:22:13;4.65;;;3.08;;
3465;SDS011;1747;48.884;9.160;2022-11-15T08:24:40;5.18;;;2.88;;
3465;SDS011;1747;48.884;9.160;2022-11-15T08:27:06;5.18;;;3.05;;
3465;SDS011;1747;48.884;9.160;2022-11-15T08:29:40;5.72;;;3.47;;
3465;SDS011;1747;48.884;9.160;2022-11-15T08:32:09;6.82;;;4.07;;
3465;SDS011;1747;48.884;9.160;2022-11-15T08:34:36;9.32;;;4.15;;
3465;SDS011;1747;48.884;9.160;2022-11-15T08:37:03;6.38;;;4.57;;
3465;SDS011;1747;48.884;9.160;2022-11-15T08:39:30;5.15;;;4.10;;
3465;SDS011;1747;48.884;9.160;2022-11-15T08:41:57;6.90;;;3.97;;
3465;SDS011;1747;48.884;9.160;2022-11-15T08:44:24;6.00;;;3.83;;
3465;SDS011;1747;48.884;9.160;2022-11-15T08:46:50;5.38;;;3.47;;
3465;SDS011;1747;48.884;9.160;2022-11-15T08:49:18;5.15;;;2.90;;
3465;SDS011;1747;48.884;9.160;2022-11-15T08:51:45;7.60;;;3.58;;
3465;SDS011;1747;48.884;9.160;2022-11-15T08:54:12;5.95;;;3.88;;
3465;SDS011;1747;48.884;9.160;2022-11-15T08:56:39;14.45;;;4.10;;
3465;SDS011;1747;48.884;9.160;2022-11-15T08:59:06;11.20;;;4.20;;
3465;SDS011;1747;48.884;9.160;2022-11-15T09:01:32;10.38;;;4.13;;
3465;SDS011;1747;48.884;9.160;2022-11-15T09:03:59;9.50;;;4.30;;
3465;SDS011;1747;48.884;9.160;2022-11-15T09:06:27;8.68;;;4.18;;
3465;SDS011;1747;48.884;9.160;2022-11-15T09:08:54;6.78;;;4.28;;
3465;SDS011;1747;48.884;9.160;2022-11-15T09:11:21;6.47;;;4.03;;
3465;SDS011;1747;48.884;9.160;2022-11-15T09:13:48;9.48;;;4.93;;
3465;SDS011;1747;48.884;9.160;2022-11-15T09:16:15;7.65;;;4.47;;
3465;SDS011;1747;48.884;9.160;2022-11-15T09:18:42;7.07;;;4.15;;
3465;SDS011;1747;48.884;9.160;2022-11-15T09:21:09;6.88;;;4.13;;
3465;SDS011;1747;48.884;9.160;2022-11-15T09:23:38;8.77;;;4.35;;
3465;SDS011;1747;48.884;9.160;2022-11-15T09:26:05;8.93;;;4.35;;
3465;SDS011;1747;48.884;9.160;2022-11-15T09:28:32;10.40;;;4.22;;
3465;SDS011;1747;48.884;9.160;2022-11-15T09:30:59;9.65;;;4.35;;
3465;SDS011;1747;48.884;9.160;2022-11-15T09:33:27;7.30;;;4.25;;
3465;SDS011;1747;48.884;9.160;2022-11-15T09:35:58;8.30;;;4.35;;
3465;SDS011;1747;48.884;9.160;2022-11-15T09:38:27;6.70;;;4.05;;
3465;SDS011;1747;48.884;9.160;2022-11-15T09:40:57;4.95;;;3.42;;
3465;SDS011;1747;48.884;9.160;2022-11-15T09:43:58;6.80;;;3.47;;
3465;SDS011;1747;48.884;9.160;2022-11-15T09:46:38;5.70;;;3.33;;
3465;SDS011;1747;48.884;9.160;2022-11-15T09:49:16;6.30;;;3.70;;
3465;SDS011;1747;48.884;9.160;2022-11-15T09:51:45;4.72;;;3.40;;
3465;SDS011;1747;48.884;9.160;2022-11-15T09:54:18;5.03;;;3.25;;
3465;SDS011;1747;48.884;9.160;2022-11-15T09:56:54;8.98;;;3.80;;
3465;SDS011;1747;48.884;9.160;2022-11-15T09:59:36;7.78;;;3.45;;
3465;SDS011;1747;48.884;9.160;2022-11-15T10:02:17;8.07;;;3.67;;
3465;SDS011;1747;48.884;9.160;2022-11-15T10:04:53;4.68;;;3.72;;
3465;SDS011;1747;48.884;9.160;2022-11-15T10:07:21;5.03;;;3.47;;
3465;SDS011;1747;48.884;9.160;2022-11-15T10:09:53;3.85;;;2.83;;
3465;SDS011;1747;48.884;9.160;2022-11-15T10:12:23;6.22;;;3.42;;
3465;SDS011;1747;48.884;9.160;2022-11-15T10:15:00;5.90;;;2.70;;
3465;SDS011;1747;48.884;9.160;2022-11-15T10:20:25;11.52;;;2.90;;
3465;SDS011;1747;48.884;9.160;2022-11-15T10:22:55;5.13;;;3.35;;
3465;SDS011;1747;48.884;9.160;2022-11-15T10:25:25;5.40;;;2.83;;
3465;SDS011;1747;48.884;9.160;2022-11-15T10:27:56;7.75;;;3.00;;
3465;SDS011;1747;48.884;9.160;2022-11-15T10:30:29;8.32;;;3.60;;
3465;SDS011;1747;48.884;9.160;2022-11-15T10:32:58;5.43;;;3.33;;
3465;SDS011;1747;48.884;9.160;2022-11-15T10:35:49;6.30;;;3.15;;
3465;SDS011;1747;48.884;9.160;2022-11-15T10:38:52;5.80;;;2.85;;
3465;SDS011;1747;48.884;9.160;2022-11-15T10:41:21;6.22;;;3.30;;
3465;SDS011;1747;48.884;9.160;2022-11-15T10:44:02;4.80;;;3.20;;
3465;SDS011;1747;48.884;9.160;2022-11-15T10:46:38;7.47;;;3.08;;
3465;SDS011;1747;48.884;9.160;2022-11-15T10:49:12;5.85;;;3.53;;
3465;SDS011;1747;48.884;9.160;2022-11-15T10:51:42;8.98;;;3.20;;
3465;SDS011;1747;48.884;9.160;2022-11-15T10:54:12;7.80;;;3.35;;
3465;SDS011;1747;48.884;9.160;2022-11-15T10:56:48;7.20;;;3.30;;
3465;SDS011;1747;48.884;9.160;2022-11-15T10:59:17;9.52;;;3.30;;
3465;SDS011;1747;48.884;9.160;2022-11-15T11:01:49;4.85;;;3.17;;
3465;SDS011;1747;48.884;9.160;2022-11-15T11:04:16;8.25;;;3.67;;
3465;SDS011;1747;48.884;9.160;2022-11-15T11:06:48;7.20;;;4.03;;
3465;SDS011;1747;48.884;9.160;2022-11-15T11:09:21;4.97;;;3.35;;
3465;SDS011;1747;48.884;9.160;2022-11-15T11:11:53;5.78;;;3.50;;
3465;SDS011;1747;48.884;9.160;2022-11-15T11:14:20;4.78;;;3.17;;
3465;SDS011;1747;48.884;9.160;2022-11-15T11:16:50;7.30;;;4.03;;
3465;SDS011;1747;48.884;9.160;2022-11-15T11:22:11;7.82;;;3.55;;
3465;SDS011;1747;48.884;9.160;2022-11-15T11:24:44;5.75;;;3.70;;
3465;SDS011;1747;48.884;9.160;2022-11-15T11:27:22;7.80;;;3.92;;
3465;SDS011;1747;48.884;9.160;2022-11-15T11:30:02;7.22;;;3.45;;
3465;SDS011;1747;48.884;9.160;2022-11-15T11:32:40;5.53;;;3.50;;
3465;SDS011;1747;48.884;9.160;2022-11-15T11:35:17;7.28;;;3.60;;
3465;SDS011;1747;48.884;9.160;2022-11-15T11:37:51;8.93;;;3.85;;
3465;SDS011;1747;48.884;9.160;2022-11-15T11:40:28;8.20;;;4.28;;
3465;SDS011;1747;48.884;9.160;2022-11-15T11:42:59;6.65;;;3.35;;
3465;SDS011;1747;48.884;9.160;2022-11-15T11:45:41;7.53;;;3.58;;
3465;SDS011;1747;48.884;9.160;2022-11-15T11:48:22;7.60;;;3.58;;
3465;SDS011;1747;48.884;9.160;2022-11-15T11:51:08;8.50;;;3.97;;
3465;SDS011;1747;48.884;9.160;2022-11-15T11:53:42;7.13;;;3.92;;
3465;SDS011;1747;48.884;9.160;2022-11-15T11:56:17;5.25;;;3.75;;
3465;SDS011;1747;48.884;9.160;2022-11-15T11:58:49;7.05;;;3.75;;
3465;SDS011;1747;48.884;9.160;2022-11-15T12:01:20;7.38;;;3.55;;
3465;SDS011;1747;48.884;9.160;2022-11-15T12:03:51;6.63;;;3.58;;
3465;SDS011;1747;48.884;9.160;2022-11-15T12:06:23;7.40;;;3.95;;
3465;SDS011;1747;48.884;9.160;2022-11-15T12:09:00;10.70;;;3.72;;
3465;SDS011;1747;48.884;9.160;2022-11-15T12:11:34;6.25;;;3.80;;
3465;SDS011;1747;48.884;9.160;2022-11-15T12:14:10;5.30;;;3.53;;
3465;SDS011;1747;48.884;9.160;2022-11-15T12:16:42;6.57;;;3.90;;
3465;SDS011;1747;48.884;9.160;2022-11-15T12:19:09;6.57;;;4.18;;
3465;SDS011;1747;48.884;9.160;2022-11-15T12:21:39;7.65;;;3.50;;
3465;SDS011;1747;48.884;9.160;2022-11-15T12:24:13;8.10;;;3.42;;
3465;SDS011;1747;48.884;9.160;2022-11-15T12:26:46;7.00;;;3.03;;
3465;SDS011;1747;48.884;9.160;2022-11-15T12:29:18;6.25;;;3.33;;
3465;SDS011;1747;48.884;9.160;2022-11-15T12:31:48;9.38;;;3.03;;
3465;SDS011;1747;48.884;9.160;2022-11-15T12:46:11;6.50;;;2.97;;
3465;SDS011;1747;48.884;9.160;2022-11-15T12:48:51;4.97;;;3.08;;
3465;SDS011;1747;48.884;9.160;2022-11-15T12:51:19;5.70;;;2.85;;
3465;SDS011;1747;48.884;9.160;2022-11-15T12:53:48;5.55;;;3.20;;
3465;SDS011;1747;48.884;9.160;2022-11-15T12:56:20;4.07;;;2.92;;
3465;SDS011;1747;48.884;9.160;2022-11-15T12:58:49;5.72;;;3.30;;
3465;SDS011;1747;48.884;9.160;2022-11-15T13:04:22;3.40;;;2.50;;
3465;SDS011;1747;48.884;9.160;2022-11-15T13:06:52;5.75;;;3.05;;
3465;SDS011;1747;48.884;9.160;2022-11-15T13:15:33;4.78;;;3.08;;
3465;SDS011;1747;48.884;9.160;2022-11-15T13:20:57;6.70;;;2.90;;
3465;SDS011;1747;48.884;9.160;2022-11-15T13:23:25;6.40;;;3.38;;
3465;SDS011;1747;48.884;9.160;2022-11-15T13:28:44;7.18;;;3.35;;
3465;SDS011;1747;48.884;9.160;2022-11-15T13:31:19;9.32;;;3.75;;
3465;SDS011;1747;48.884;9.160;2022-11-15T13:33:58;8.18;;;3.17;;
3465;SDS011;1747;48.884;9.160;2022-11-15T13:36:29;6.60;;;3.38;;
3465;SDS011;1747;48.884;9.160;2022-11-15T13:38:59;6.97;;;3.25;;
3465;SDS011;1747;48.884;9.160;2022-11-15T13:41:28;15.02;;;3.60;;
3465;SDS011;1747;48.884;9.160;2022-11-15T13:43:57;5.88;;;3.30;;
3465;SDS011;1747;48.884;9.160;2022-11-15T13:46:25;6.10;;;3.13;;
3465;SDS011;1747;48.884;9.160;2022-11-15T13:48:55;7.82;;;3.60;;
3465;SDS011;1747;48.884;9.160;2022-11-15T13:51:25;6.28;;;3.15;;
3465;SDS011;1747;48.884;9.160;2022-11-15T13:53:56;8.40;;;3.70;;
3465;SDS011;1747;48.884;9.160;2022-11-15T13:56:26;5.97;;;3.38;;
3465;SDS011;1747;48.884;9.160;2022-11-15T13:58:54;8.57;;;3.75;;
3465;SDS011;1747;48.884;9.160;2022-11-15T14:01:23;5.45;;;3.70;;
3465;SDS011;1747;48.884;9.160;2022-11-15T14:03:55;6.65;;;3.78;;
3465;SDS011;1747;48.884;9.160;2022-11-15T14:06:24;6.03;;;3.53;;
3465;SDS011;1747;48.884;9.160;2022-11-15T14:09:15;7.55;;;3.60;;
3465;SDS011;1747;48.884;9.160;2022-11-15T14:11:58;6.43;;;3.90;;
3465;SDS011;1747;48.884;9.160;2022-11-15T14:14:25;8.20;;;3.60;;
3465;SDS011;1747;48.884;9.160;2022-11-15T14:16:55;7.45;;;3.75;;
3465;SDS011;1747;48.884;9.160;2022-11-15T14:19:37;9.05;;;3.08;;
3465;SDS011;1747;48.884;9.160;2022-11-15T14:22:10;13.13;;;3.50;;
3465;SDS011;1747;48.884;9.160;2022-11-15T14:24:38;7.63;;;2.90;;
3465;SDS011;1747;48.884;9.160;2022-11-15T14:27:23;8.57;;;3.42;;
3465;SDS011;1747;48.884;9.160;2022-11-15T14:29:51;8.20;;;3.78;;
3465;SDS011;1747;48.884;9.160;2022-11-15T14:32:20;11.18;;;3.65;;
3465;SDS011;1747;48.884;9.160;2022-11-15T14:34:48;14.00;;;3.50;;
3465;SDS011;1747;48.884;9.160;2022-11-15T14:37:20;7.18;;;3.53;;
3465;SDS011;1747;48.884;9.160;2022-11-15T14:39:49;8.68;;;4.03;;
3465;SDS011;1747;48.884;9.160;2022-11-15T14:42:16;9.85;;;3.38;;
3465;SDS011;1747;48.884;9.160;2022-11-15T14:44:44;7.70;;;4.32;;
3465;SDS011;1747;48.884;9.160;2022-11-15T14:47:11;8.65;;;4.40;;
3465;SDS011;1747;48.884;9.160;2022-11-15T14:49:39;5.95;;;4.13;;
3465;SDS011;1747;48.884;9.160;2022-11-15T14:54:52;8.40;;;4.32;;
3465;SDS011;1747;48.884;9.160;2022-11-15T14:57:19;10.40;;;3.92;;
3465;SDS011;1747;48.884;9.160;2022-11-15T14:59:46;10.10;;;4.15;;
3465;SDS011;1747;48.884;9.160;2022-11-15T15:02:15;9.48;;;5.20;;
3465;SDS011;1747;48.884;9.160;2022-11-15T15:04:46;9.40;;;4.55;;
3465;SDS011;1747;48.884;9.160;2022-11-15T15:07:13;8.15;;;4.57;;
3465;SDS011;1747;48.884;9.160;2022-11-15T15:09:40;11.13;;;4.90;;
3465;SDS011;1747;48.884;9.160;2022-11-15T15:12:13;8.63;;;5.05;;
3465;SDS011;1747;48.884;9.160;2022-11-15T15:14:42;9.02;;;4.65;;
3465;SDS011;1747;48.884;9.160;2022-11-15T15:17:09;10.05;;;5.03;;
3465;SDS011;1747;48.884;9.160;2022-11-15T15:19:36;11.55;;;5.15;;
3465;SDS011;1747;48.884;9.160;2022-11-15T15:22:05;8.25;;;5.13;;
3465;SDS011;1747;48.884;9.160;2022-11-15T15:24:32;13.35;;;5.15;;
3465;SDS011;1747;48.884;9.160;2022-11-15T15:26:59;10.20;;;4.68;;
3465;SDS011;1747;48.884;9.160;2022-11-15T15:29:26;10.77;;;5.82;;
3465;SDS011;1747;48.884;9.160;2022-11-15T15:31:52;11.52;;;5.88;;
3465;SDS011;1747;48.884;9.160;2022-11-15T15:34:20;13.57;;;5.47;;
3465;SDS011;1747;48.884;9.160;2022-11-15T15:36:47;10.50;;;5.45;;
3465;SDS011;1747;48.884;9.160;2022-11-15T15:39:15;10.98;;;5.55;;
3465;SDS011;1747;48.884;9.160;2022-11-15T15:41:43;13.60;;;5.30;;
3465;SDS011;1747;48.884;9.160;2022-11-15T15:44:09;11.25;;;4.90;;
3465;SDS011;1747;48.884;9.160;2022-11-15T15:46:36;13.85;;;5.63;;
3465;SDS011;1747;48.884;9.160;2022-11-15T15:49:03;8.55;;;5.72;;
3465;SDS011;1747;48.884;9.160;2022-11-15T15:51:30;10.73;;;4.70;;
3465;SDS011;1747;48.884;9.160;2022-11-15T15:53:57;13.27;;;6.10;;
3465;SDS011;1747;48.884;9.160;2022-11-15T15:56:25;9.85;;;5.20;;
3465;SDS011;1747;48.884;9.160;2022-11-15T15:58:53;13.13;;;6.22;;
3465;SDS011;1747;48.884;9.160;2022-11-15T16:01:20;9.98;;;6.32;;
3465;SDS011;1747;48.884;9.160;2022-11-15T16:03:47;7.55;;;4.85;;
3465;SDS011;1747;48.884;9.160;2022-11-15T16:06:26;10.45;;;5.75;;
3465;SDS011;1747;48.884;9.160;2022-11-15T16:09:00;13.00;;;6.28;;
3465;SDS011;1747;48.884;9.160;2022-11-15T16:11:28;10.18;;;5.35;;
3465;SDS011;1747;48.884;9.160;2022-11-15T16:13:55;7.93;;;4.90;;
3465;SDS011;1747;48.884;9.160;2022-11-15T16:16:22;8.25;;;4.65;;
3465;SDS011;1747;48.884;9.160;2022-11-15T16:18:48;8.45;;;4.40;;
3465;SDS011;1747;48.884;9.160;2022-11-15T16:21:15;7.28;;;4.70;;
3465;SDS011;1747;48.884;9.160;2022-11-15T16:23:42;6.85;;;4.43;;
3465;SDS011;1747;48.884;9.160;2022-11-15T16:26:10;8.50;;;4.28;;
3465;SDS011;1747;48.884;9.160;2022-11-15T16:28:45;7.15;;;4.40;;
3465;SDS011;1747;48.884;9.160;2022-11-15T16:31:12;6.28;;;4.35;;
3465;SDS011;1747;48.884;9.160;2022-11-15T16:33:39;7.95;;;4.55;;
3465;SDS011;1747;48.884;9.160;2022-11-15T16:36:18;7.80;;;4.00;;
3465;SDS011;1747;48.884;9.160;2022-11-15T16:38:47;9.27;;;4.05;;